Time;durP1;ratioP1;P1;durP2;ratioP2;P2;SDS_P1;SDS_P2;PMS_P1;PMS_P2;Temp;Humidity;BMP_temperature;BMP_pressure;BME280_temperature;BME280_humidity;BME280_pressure;Samples;Min_cycle;Max_cycle;Signal;HPM_P1;HPM_P2
2021/05/05 00:01:30;;;;;;;17.00;9.88;;;;;;;;;;4269093;33;20560;-56
2021/05/05 00:03:55;;;;;;;20.55;9.38;;;;;;;;;;4258484;33;20321;-57
2021/05/05 00:06:21;;;;;;;16.48;7.50;;;;;;;;;;4258828;33;20217;-56
2021/05/05 00:08:47;;;;;;;15.70;7.72;;;;;;;;;;4258781;33;20331;-57
2021/05/05 00:11:13;;;;;;;13.62;6.47;;;;;;;;;;4258316;33;20311;-57
2021/05/05 00:13:38;;;;;;;13.00;6.20;;;;;;;;;;4258965;33;20268;-57
2021/05/05 00:16:05;;;;;;;11.60;5.65;;;;;;;;;;4258126;33;20255;-56
2021/05/05 00:18:32;;;;;;;10.25;5.57;;;;;;;;;;4257263;33;20382;-56
2021/05/05 00:20:57;;;;;;;11.05;6.30;;;;;;;;;;4257591;33;20707;-56
2021/05/05 00:23:23;;;;;;;10.25;5.82;;;;;;;;;;4258643;33;20335;-57
2021/05/05 00:25:49;;;;;;;10.43;5.47;;;;;;;;;;4258738;33;20732;-56
2021/05/05 00:28:14;;;;;;;10.35;6.28;;;;;;;;;;4269096;33;20334;-56
2021/05/05 00:30:40;;;;;;;14.10;6.93;;;;;;;;;;4258394;33;20291;-56
2021/05/05 00:33:06;;;;;;;30.60;19.08;;;;;;;;;;4258357;33;20284;-56
2021/05/05 00:35:31;;;;;;;122.05;96.03;;;;;;;;;;4258661;33;20312;-55
2021/05/05 00:37:57;;;;;;;126.07;101.47;;;;;;;;;;4258479;33;20674;-56
2021/05/05 00:40:22;;;;;;;108.80;87.50;;;;;;;;;;4258430;33;20642;-56
2021/05/05 00:42:48;;;;;;;72.72;53.83;;;;;;;;;;4258225;33;20236;-56
2021/05/05 00:45:15;;;;;;;65.47;52.92;;;;;;;;;;4258481;33;20559;-55
2021/05/05 00:47:42;;;;;;;29.02;24.15;;;;;;;;;;4258345;33;20284;-55
2021/05/05 00:50:10;;;;;;;38.70;23.27;;;;;;;;;;4262362;33;20266;-56
2021/05/05 00:52:36;;;;;;;26.35;20.65;;;;;;;;;;4272336;33;20290;-55
2021/05/05 00:55:03;;;;;;;18.20;13.73;;;;;;;;;;4272419;33;20262;-55
2021/05/05 00:57:30;;;;;;;21.73;16.30;;;;;;;;;;4272372;33;20254;-55
2021/05/05 00:59:56;;;;;;;16.62;12.00;;;;;;;;;;4283000;33;20240;-55
2021/05/05 01:02:22;;;;;;;12.00;7.00;;;;;;;;;;4272333;33;20247;-55
2021/05/05 01:04:47;;;;;;;11.07;6.37;;;;;;;;;;4271870;33;20228;-55
2021/05/05 01:07:13;;;;;;;12.93;7.47;;;;;;;;;;4271962;33;20242;-55
2021/05/05 01:09:43;;;;;;;14.23;7.75;;;;;;;;;;4271979;33;20368;-56
2021/05/05 01:12:09;;;;;;;7.80;6.57;;;;;;;;;;4270781;33;20292;-55
2021/05/05 01:14:35;;;;;;;13.55;7.65;;;;;;;;;;4272345;33;20327;-56
2021/05/05 01:17:00;;;;;;;15.60;8.38;;;;;;;;;;4271821;33;20724;-55
2021/05/05 01:19:26;;;;;;;21.00;15.00;;;;;;;;;;4284117;33;20290;-60
2021/05/05 01:21:52;;;;;;;15.80;10.95;;;;;;;;;;4284942;33;20702;-60
2021/05/05 01:24:17;;;;;;;17.30;10.25;;;;;;;;;;4286109;33;20307;-59
2021/05/05 01:26:43;;;;;;;16.08;7.87;;;;;;;;;;4286475;33;20251;-60
2021/05/05 01:29:10;;;;;;;18.75;8.25;;;;;;;;;;4296385;33;20337;-60
2021/05/05 01:31:36;;;;;;;13.32;9.77;;;;;;;;;;4286148;33;20220;-60
2021/05/05 01:34:04;;;;;;;11.65;8.77;;;;;;;;;;4285931;33;20345;-60
2021/05/05 01:36:36;;;;;;;9.35;5.75;;;;;;;;;;4286232;33;20283;-60
2021/05/05 01:39:05;;;;;;;10.95;5.93;;;;;;;;;;4286290;33;20263;-60
2021/05/05 01:41:32;;;;;;;15.50;6.50;;;;;;;;;;4285896;33;20354;-60
2021/05/05 01:43:58;;;;;;;8.32;5.60;;;;;;;;;;4286013;33;20601;-60
2021/05/05 01:46:23;;;;;;;9.95;5.57;;;;;;;;;;4286132;33;20288;-60
2021/05/05 01:48:49;;;;;;;16.15;5.57;;;;;;;;;;4285899;33;20309;-60
2021/05/05 01:51:15;;;;;;;9.90;5.18;;;;;;;;;;4263472;33;20288;-60
2021/05/05 01:53:41;;;;;;;10.68;5.75;;;;;;;;;;4257288;33;20312;-60
2021/05/05 01:56:07;;;;;;;10.35;6.12;;;;;;;;;;4257062;33;20889;-60
2021/05/05 01:58:34;;;;;;;9.00;4.15;;;;;;;;;;4257586;33;20482;-60
2021/05/05 02:01:01;;;;;;;12.25;6.30;;;;;;;;;;4257245;33;20659;-60
2021/05/05 02:03:27;;;;;;;12.25;9.13;;;;;;;;;;4257345;33;20200;-60
2021/05/05 02:05:53;;;;;;;17.90;9.95;;;;;;;;;;4257467;33;20247;-60
2021/05/05 02:08:18;;;;;;;12.43;5.90;;;;;;;;;;4257166;33;20295;-60
2021/05/05 02:10:46;;;;;;;11.95;6.65;;;;;;;;;;4265268;33;20237;-60
2021/05/05 02:13:15;;;;;;;16.45;5.78;;;;;;;;;;4271151;33;20272;-61
2021/05/05 02:15:41;;;;;;;8.05;5.85;;;;;;;;;;4271442;33;20327;-60
2021/05/05 02:18:10;;;;;;;20.60;6.82;;;;;;;;;;4275911;33;20254;-60
2021/05/05 02:20:36;;;;;;;14.27;6.93;;;;;;;;;;4272598;33;20250;-60
2021/05/05 02:23:02;;;;;;;12.93;5.65;;;;;;;;;;4285361;33;20212;-60
2021/05/05 02:25:28;;;;;;;10.85;4.70;;;;;;;;;;4285617;33;20325;-60
2021/05/05 02:27:54;;;;;;;13.00;5.80;;;;;;;;;;4285406;33;20211;-59
2021/05/05 02:30:21;;;;;;;13.85;5.97;;;;;;;;;;4285709;33;20266;-60
2021/05/05 02:32:49;;;;;;;9.75;6.85;;;;;;;;;;4285489;33;20240;-60
2021/05/05 02:35:16;;;;;;;13.60;5.47;;;;;;;;;;4285499;33;20212;-60
2021/05/05 02:37:43;;;;;;;13.02;5.75;;;;;;;;;;4285460;33;20288;-60
2021/05/05 02:40:11;;;;;;;11.05;5.90;;;;;;;;;;4283996;33;20268;-60
2021/05/05 02:42:37;;;;;;;15.65;7.97;;;;;;;;;;4285294;33;20216;-60
2021/05/05 02:45:03;;;;;;;23.75;13.25;;;;;;;;;;4285554;33;20231;-60
2021/05/05 02:47:29;;;;;;;28.15;20.52;;;;;;;;;;4285109;33;20291;-56
2021/05/05 02:49:55;;;;;;;20.15;15.55;;;;;;;;;;4278167;33;20292;-56
2021/05/05 02:52:21;;;;;;;14.57;8.23;;;;;;;;;;4257043;33;20288;-56
2021/05/05 02:54:46;;;;;;;11.85;6.50;;;;;;;;;;4255506;33;20393;-55
2021/05/05 02:57:12;;;;;;;12.55;5.72;;;;;;;;;;4267309;33;20323;-56
2021/05/05 02:59:38;;;;;;;10.65;5.30;;;;;;;;;;4256728;33;20304;-55
2021/05/05 03:02:05;;;;;;;10.75;5.82;;;;;;;;;;4256542;33;20606;-56
2021/05/05 03:04:31;;;;;;;9.70;5.43;;;;;;;;;;4256810;33;20224;-56
2021/05/05 03:06:57;;;;;;;10.40;5.35;;;;;;;;;;4256606;33;20244;-56
2021/05/05 03:09:25;;;;;;;12.75;5.97;;;;;;;;;;4256430;33;20363;-55
2021/05/05 03:11:52;;;;;;;12.07;4.87;;;;;;;;;;4266034;33;20342;-59
2021/05/05 03:14:18;;;;;;;10.55;5.40;;;;;;;;;;4267365;33;20228;-56
2021/05/05 03:16:44;;;;;;;9.13;5.00;;;;;;;;;;4256568;33;20204;-60
2021/05/05 03:19:10;;;;;;;13.57;5.65;;;;;;;;;;4277479;33;20391;-60
2021/05/05 03:21:39;;;;;;;15.05;5.75;;;;;;;;;;4284986;33;20690;-60
2021/05/05 03:24:06;;;;;;;38.83;25.70;;;;;;;;;;4285283;33;20658;-60
2021/05/05 03:26:33;;;;;;;31.35;24.37;;;;;;;;;;4284751;33;20365;-60
2021/05/05 03:28:58;;;;;;;24.00;19.80;;;;;;;;;;4283849;33;20303;-56
2021/05/05 03:31:24;;;;;;;19.12;9.98;;;;;;;;;;4284721;33;20239;-56
2021/05/05 03:33:50;;;;;;;12.95;6.57;;;;;;;;;;4285216;33;20547;-57
2021/05/05 03:36:15;;;;;;;14.95;5.97;;;;;;;;;;4285224;33;20219;-59
2021/05/05 03:38:41;;;;;;;16.02;5.75;;;;;;;;;;4284872;33;20302;-60
2021/05/05 03:41:06;;;;;;;12.27;5.85;;;;;;;;;;4284893;33;20595;-60
2021/05/05 03:43:32;;;;;;;10.23;5.60;;;;;;;;;;4285130;33;20290;-60
2021/05/05 03:45:57;;;;;;;16.15;6.30;;;;;;;;;;4284949;33;20627;-60
2021/05/05 03:48:24;;;;;;;23.00;7.12;;;;;;;;;;4283867;33;20300;-59
2021/05/05 03:50:51;;;;;;;11.98;6.45;;;;;;;;;;4276016;33;20258;-60
2021/05/05 03:53:17;;;;;;;10.43;6.32;;;;;;;;;;4272898;33;20797;-60
2021/05/05 03:55:42;;;;;;;9.55;5.82;;;;;;;;;;4273403;33;20220;-60
2021/05/05 03:58:08;;;;;;;15.40;6.80;;;;;;;;;;4273051;33;20259;-61
2021/05/05 04:00:34;;;;;;;18.33;6.93;;;;;;;;;;4273430;33;20236;-60
2021/05/05 04:02:59;;;;;;;13.30;5.93;;;;;;;;;;4273030;33;20619;-59
2021/05/05 04:05:25;;;;;;;11.80;6.65;;;;;;;;;;4273050;33;20224;-59
2021/05/05 04:07:51;;;;;;;14.57;6.68;;;;;;;;;;4272955;33;20315;-60
2021/05/05 04:10:16;;;;;;;16.20;8.43;;;;;;;;;;4272674;33;20310;-60
2021/05/05 04:12:42;;;;;;;10.48;6.60;;;;;;;;;;4272787;33;20505;-59
2021/05/05 04:15:08;;;;;;;14.20;6.65;;;;;;;;;;4272561;33;20220;-60
2021/05/05 04:17:33;;;;;;;12.27;6.95;;;;;;;;;;4273766;33;20220;-61
2021/05/05 04:19:59;;;;;;;18.75;6.25;;;;;;;;;;4287209;33;20267;-61
2021/05/05 04:22:27;;;;;;;13.23;6.37;;;;;;;;;;4287253;33;20303;-61
2021/05/05 04:24:53;;;;;;;15.32;6.03;;;;;;;;;;4287394;33;20542;-60
2021/05/05 04:27:19;;;;;;;19.98;6.20;;;;;;;;;;4287012;33;20336;-61
2021/05/05 04:29:46;;;;;;;28.15;6.95;;;;;;;;;;4285727;33;20311;-56
2021/05/05 04:32:13;;;;;;;17.15;6.30;;;;;;;;;;4286930;33;20251;-56
2021/05/05 04:34:39;;;;;;;12.15;5.47;;;;;;;;;;4287082;33;20589;-55
2021/05/05 04:37:06;;;;;;;12.45;6.32;;;;;;;;;;4297515;33;20311;-55
2021/05/05 04:39:36;;;;;;;12.43;6.12;;;;;;;;;;4286767;33;20228;-55
2021/05/05 04:42:04;;;;;;;17.42;7.37;;;;;;;;;;4286661;33;20633;-55
2021/05/05 04:44:30;;;;;;;16.67;6.62;;;;;;;;;;4261576;33;20705;-55
2021/05/05 04:46:56;;;;;;;21.70;6.28;;;;;;;;;;4285994;33;20200;-55
2021/05/05 04:49:22;;;;;;;11.60;6.40;;;;;;;;;;4286440;33;20298;-58
2021/05/05 04:51:48;;;;;;;12.27;5.68;;;;;;;;;;4257627;33;20592;-54
2021/05/05 04:54:14;;;;;;;18.85;7.32;;;;;;;;;;4257079;33;20292;-55
2021/05/05 04:56:40;;;;;;;13.45;6.25;;;;;;;;;;4257552;33;20229;-54
2021/05/05 04:59:05;;;;;;;17.08;7.70;;;;;;;;;;4257695;33;20290;-56
2021/05/05 05:01:31;;;;;;;19.60;8.57;;;;;;;;;;4268118;33;20262;-55
2021/05/05 05:03:57;;;;;;;18.37;7.60;;;;;;;;;;4257376;33;20317;-55
2021/05/05 05:06:23;;;;;;;12.52;6.30;;;;;;;;;;4257855;33;20224;-55
2021/05/05 05:08:49;;;;;;;16.33;7.18;;;;;;;;;;4258081;33;20287;-60
2021/05/05 05:11:15;;;;;;;18.75;7.10;;;;;;;;;;4267747;33;20271;-60
2021/05/05 05:13:40;;;;;;;14.13;7.82;;;;;;;;;;4258006;33;20287;-60
2021/05/05 05:16:06;;;;;;;14.82;6.10;;;;;;;;;;4257545;33;20292;-60
2021/05/05 05:18:33;;;;;;;24.35;6.32;;;;;;;;;;4257493;33;20313;-60
2021/05/05 05:20:59;;;;;;;15.35;5.43;;;;;;;;;;4244359;33;20232;-60
2021/05/05 05:23:24;;;;;;;12.98;6.80;;;;;;;;;;4257632;33;20358;-60
2021/05/05 05:25:50;;;;;;;12.63;6.15;;;;;;;;;;4256309;33;20478;-56
2021/05/05 05:28:16;;;;;;;15.43;6.78;;;;;;;;;;4257347;33;20362;-56
2021/05/05 05:30:42;;;;;;;14.77;6.45;;;;;;;;;;4257243;33;20627;-55
2021/05/05 05:33:07;;;;;;;16.12;7.15;;;;;;;;;;4244099;33;20232;-61
2021/05/05 05:35:33;;;;;;;11.63;6.40;;;;;;;;;;4257172;33;20288;-61
2021/05/05 05:38:04;;;;;;;14.13;6.47;;;;;;;;;;4257292;33;20279;-61
2021/05/05 05:40:33;;;;;;;8.45;5.05;;;;;;;;;;4256953;33;20314;-60
2021/05/05 05:43:05;;;;;;;10.35;5.55;;;;;;;;;;4256952;33;20295;-59
2021/05/05 05:45:31;;;;;;;13.52;5.47;;;;;;;;;;4256935;33;20236;-60
2021/05/05 05:47:57;;;;;;;10.13;4.55;;;;;;;;;;4257050;33;20306;-59
2021/05/05 05:50:23;;;;;;;10.77;4.05;;;;;;;;;;4262895;33;20244;-59
2021/05/05 05:52:49;;;;;;;11.40;3.70;;;;;;;;;;4270707;33;20393;-59
2021/05/05 05:55:16;;;;;;;8.20;4.22;;;;;;;;;;4270744;33;20233;-60
2021/05/05 05:57:43;;;;;;;8.60;4.03;;;;;;;;;;4269429;33;20216;-60
2021/05/05 06:00:13;;;;;;;9.10;3.87;;;;;;;;;;4270554;33;20652;-60
2021/05/05 06:02:39;;;;;;;9.57;4.20;;;;;;;;;;4270801;33;20272;-60
2021/05/05 06:05:05;;;;;;;8.82;4.22;;;;;;;;;;4269732;33;20302;-54
2021/05/05 06:07:30;;;;;;;14.18;4.45;;;;;;;;;;4271070;33;20788;-54
2021/05/05 06:09:56;;;;;;;13.57;4.40;;;;;;;;;;4258044;33;20294;-55
2021/05/05 06:12:21;;;;;;;13.27;4.37;;;;;;;;;;4271021;33;20196;-54
2021/05/05 06:14:47;;;;;;;14.05;4.82;;;;;;;;;;4269329;33;20252;-54
2021/05/05 06:17:13;;;;;;;12.93;5.55;;;;;;;;;;4269430;33;20640;-55
2021/05/05 06:19:38;;;;;;;12.90;5.37;;;;;;;;;;4283191;33;20332;-55
2021/05/05 06:22:04;;;;;;;12.52;4.28;;;;;;;;;;4285547;33;20511;-54
2021/05/05 06:24:30;;;;;;;14.45;4.18;;;;;;;;;;4285028;33;20235;-55
2021/05/05 06:26:56;;;;;;;10.27;4.40;;;;;;;;;;4285172;33;20607;-54
2021/05/05 06:29:21;;;;;;;17.48;3.80;;;;;;;;;;4285092;33;20279;-54
2021/05/05 06:31:47;;;;;;;8.73;4.37;;;;;;;;;;4284905;33;20226;-54
2021/05/05 06:34:13;;;;;;;13.23;3.85;;;;;;;;;;4295767;33;20322;-54
2021/05/05 06:36:38;;;;;;;12.43;3.85;;;;;;;;;;4284552;33;20213;-54
2021/05/05 06:39:10;;;;;;;9.85;5.87;;;;;;;;;;4284677;33;20306;-59
2021/05/05 06:41:36;;;;;;;10.18;4.62;;;;;;;;;;4284826;33;20203;-55
2021/05/05 06:44:02;;;;;;;6.85;3.85;;;;;;;;;;4283291;33;20307;-55
2021/05/05 06:46:30;;;;;;;9.05;3.40;;;;;;;;;;4282986;33;20236;-55
2021/05/05 06:48:57;;;;;;;11.00;4.75;;;;;;;;;;4295212;33;20307;-55
2021/05/05 06:51:23;;;;;;;8.52;4.28;;;;;;;;;;4259603;33;20682;-54
2021/05/05 06:53:49;;;;;;;7.53;3.42;;;;;;;;;;4254825;33;20295;-55
2021/05/05 06:56:14;;;;;;;10.70;3.83;;;;;;;;;;4256132;33;20225;-55
2021/05/05 06:58:40;;;;;;;6.95;3.00;;;;;;;;;;4256068;33;20307;-54
2021/05/05 07:01:05;;;;;;;7.53;3.40;;;;;;;;;;4256345;33;20256;-54
2021/05/05 07:03:31;;;;;;;9.00;3.20;;;;;;;;;;4256074;33;20319;-55
2021/05/05 07:05:58;;;;;;;17.55;3.87;;;;;;;;;;4254994;33;20674;-55
2021/05/05 07:08:25;;;;;;;9.38;3.10;;;;;;;;;;4256220;33;20221;-54
2021/05/05 07:10:51;;;;;;;5.37;2.90;;;;;;;;;;4255837;33;20315;-54
2021/05/05 07:13:17;;;;;;;10.82;3.12;;;;;;;;;;4255390;33;20541;-55
2021/05/05 07:15:43;;;;;;;7.90;3.85;;;;;;;;;;4254548;33;20563;-59
2021/05/05 07:18:09;;;;;;;11.75;2.60;;;;;;;;;;4265124;33;20246;-60
2021/05/05 07:20:35;;;;;;;9.02;2.97;;;;;;;;;;4284442;33;20626;-60
2021/05/05 07:23:01;;;;;;;6.78;2.50;;;;;;;;;;4284293;33;20283;-60
2021/05/05 07:25:27;;;;;;;6.03;3.22;;;;;;;;;;4282701;33;20597;-59
2021/05/05 07:27:53;;;;;;;8.80;3.35;;;;;;;;;;4286454;33;20354;-60
2021/05/05 07:30:20;;;;;;;8.32;2.75;;;;;;;;;;4287454;33;20243;-60
2021/05/05 07:32:47;;;;;;;17.02;3.87;;;;;;;;;;4287224;33;20267;-59
2021/05/05 07:35:14;;;;;;;20.25;3.60;;;;;;;;;;4287554;33;20228;-60
2021/05/05 07:48:26;;;;;;;8.45;3.28;;;;;;;;;;4286532;33;20293;-60
2021/05/05 07:50:53;;;;;;;5.47;2.45;;;;;;;;;;4264731;33;20231;-60
2021/05/05 07:53:19;;;;;;;7.45;3.08;;;;;;;;;;4259556;33;20233;-60
2021/05/05 07:55:44;;;;;;;10.20;2.87;;;;;;;;;;4272280;33;20254;-60
2021/05/05 07:58:11;;;;;;;16.33;3.05;;;;;;;;;;4272282;33;20279;-59
2021/05/05 08:00:38;;;;;;;12.95;2.85;;;;;;;;;;4282780;33;20248;-60
2021/05/05 08:03:04;;;;;;;9.65;2.87;;;;;;;;;;4272194;33;20596;-60
2021/05/05 08:05:29;;;;;;;5.90;2.80;;;;;;;;;;4259647;33;20232;-59
2021/05/05 08:07:58;;;;;;;12.93;2.58;;;;;;;;;;4272140;33;20243;-60
2021/05/05 08:10:24;;;;;;;5.72;2.87;;;;;;;;;;4270391;33;20643;-64
2021/05/05 08:12:49;;;;;;;8.13;2.75;;;;;;;;;;4272028;33;20649;-59
2021/05/05 08:15:16;;;;;;;11.30;3.80;;;;;;;;;;4271044;33;20259;-59
2021/05/05 08:17:42;;;;;;;9.95;3.35;;;;;;;;;;4271291;33;20254;-60
2021/05/05 08:20:08;;;;;;;5.68;2.30;;;;;;;;;;4271295;33;20311;-60
2021/05/05 08:22:34;;;;;;;5.18;2.75;;;;;;;;;;4282145;33;20312;-60
2021/05/05 08:25:00;;;;;;;5.80;2.65;;;;;;;;;;4271582;33;20657;-56
2021/05/05 08:27:26;;;;;;;7.07;2.65;;;;;;;;;;4271871;33;20208;-55
2021/05/05 08:29:52;;;;;;;4.25;2.40;;;;;;;;;;4271093;33;20295;-55
2021/05/05 08:32:19;;;;;;;3.97;2.20;;;;;;;;;;4271127;33;20252;-55
2021/05/05 08:34:48;;;;;;;7.55;2.85;;;;;;;;;;4271237;33;20238;-54
2021/05/05 08:37:14;;;;;;;11.52;2.83;;;;;;;;;;4271069;33;20216;-55
2021/05/05 08:39:39;;;;;;;7.90;2.95;;;;;;;;;;4271621;33;20276;-55
2021/05/05 08:42:05;;;;;;;5.20;2.40;;;;;;;;;;4271286;33;20650;-55
2021/05/05 08:44:32;;;;;;;16.50;2.70;;;;;;;;;;4271433;33;20596;-56
2021/05/05 08:46:57;;;;;;;11.27;3.90;;;;;;;;;;4269940;33;20244;-55
2021/05/05 08:49:23;;;;;;;24.67;3.50;;;;;;;;;;4270919;33;20275;-54
2021/05/05 08:51:49;;;;;;;4.75;2.65;;;;;;;;;;4285312;33;20260;-55
2021/05/05 08:54:16;;;;;;;8.05;3.10;;;;;;;;;;4285825;33;20309;-55
2021/05/05 08:56:42;;;;;;;10.48;2.50;;;;;;;;;;4284998;33;20217;-55
2021/05/05 08:59:14;;;;;;;7.20;2.45;;;;;;;;;;4285677;33;20354;-54
2021/05/05 09:01:41;;;;;;;11.18;2.85;;;;;;;;;;4284873;33;20341;-54
2021/05/05 09:04:07;;;;;;;11.95;2.40;;;;;;;;;;4284895;33;20213;-55
2021/05/05 09:06:46;;;;;;;4.50;2.28;;;;;;;;;;4285387;33;20419;-54
2021/05/05 09:09:44;;;;;;;8.48;3.22;;;;;;;;;;4285322;33;20365;-55
2021/05/05 09:12:17;;;;;;;6.90;2.15;;;;;;;;;;4285214;33;20291;-55
2021/05/05 09:15:03;;;;;;;7.37;2.05;;;;;;;;;;4285651;33;20283;-55
2021/05/05 09:17:32;;;;;;;7.57;2.47;;;;;;;;;;4284155;33;20265;-55
2021/05/05 09:20:11;;;;;;;5.10;2.40;;;;;;;;;;4267697;33;20587;-58
2021/05/05 09:22:45;;;;;;;7.68;2.00;;;;;;;;;;4267287;33;20240;-60
2021/05/05 09:25:15;;;;;;;6.75;1.87;;;;;;;;;;4267473;33;20764;-60
2021/05/05 09:27:42;;;;;;;5.68;1.98;;;;;;;;;;4256823;33;20298;-60
2021/05/05 09:30:20;;;;;;;7.25;2.15;;;;;;;;;;4256721;33;20220;-60
2021/05/05 09:32:54;;;;;;;10.48;1.95;;;;;;;;;;4257566;33;20268;-59
2021/05/05 09:35:39;;;;;;;9.73;2.42;;;;;;;;;;4257706;33;20288;-59
2021/05/05 09:38:07;;;;;;;5.12;1.80;;;;;;;;;;4257177;33;20231;-59
2021/05/05 09:40:37;;;;;;;8.20;2.28;;;;;;;;;;4256927;33;20246;-59
2021/05/05 09:43:16;;;;;;;6.85;2.95;;;;;;;;;;4257051;33;20232;-59
2021/05/05 09:45:42;;;;;;;11.52;2.05;;;;;;;;;;4256810;33;20254;-55
2021/05/05 09:48:08;;;;;;;5.05;2.00;;;;;;;;;;4266780;33;20217;-55
2021/05/05 09:50:37;;;;;;;8.18;2.65;;;;;;;;;;4269731;33;20286;-55
2021/05/05 09:53:25;;;;;;;11.30;2.30;;;;;;;;;;4285073;33;20712;-55
2021/05/05 09:55:54;;;;;;;10.90;5.15;;;;;;;;;;4285332;33;20287;-55
2021/05/05 09:58:30;;;;;;;22.30;4.90;;;;;;;;;;4284035;33;20363;-56
2021/05/05 10:01:05;;;;;;;9.30;3.53;;;;;;;;;;4283657;33;20259;-55
2021/05/05 10:03:43;;;;;;;21.27;2.83;;;;;;;;;;4285107;33;20284;-56
2021/05/05 10:06:24;;;;;;;14.68;2.03;;;;;;;;;;4284973;33;20324;-55
2021/05/05 10:09:07;;;;;;;11.73;3.05;;;;;;;;;;4284056;33;20231;-56
2021/05/05 10:11:40;;;;;;;8.30;2.67;;;;;;;;;;4284701;33;20306;-56
2021/05/05 10:14:08;;;;;;;10.73;2.33;;;;;;;;;;4285586;33;20200;-56
2021/05/05 10:16:36;;;;;;;10.73;2.00;;;;;;;;;;4285405;33;20535;-59
2021/05/05 10:19:06;;;;;;;17.80;2.97;;;;;;;;;;4265571;33;20224;-60
2021/05/05 10:21:39;;;;;;;18.12;3.45;;;;;;;;;;4267507;33;20296;-60
2021/05/05 10:24:08;;;;;;;9.77;2.25;;;;;;;;;;4257446;33;20595;-60
2021/05/05 10:26:34;;;;;;;4.07;2.10;;;;;;;;;;4256906;33;20217;-59
2021/05/05 10:29:00;;;;;;;4.95;2.58;;;;;;;;;;4257205;33;20287;-59
2021/05/05 10:31:29;;;;;;;9.40;2.15;;;;;;;;;;4256802;33;20255;-59
2021/05/05 10:33:58;;;;;;;12.80;2.78;;;;;;;;;;4256884;33;20370;-59
2021/05/05 10:36:31;;;;;;;5.20;1.52;;;;;;;;;;4267269;33;20229;-59
2021/05/05 10:38:58;;;;;;;9.70;2.20;;;;;;;;;;4256528;33;20244;-60
2021/05/05 10:41:24;;;;;;;11.12;2.30;;;;;;;;;;4256779;33;20329;-56
2021/05/05 10:43:51;;;;;;;5.07;2.72;;;;;;;;;;4256672;33;20716;-60
2021/05/05 10:46:23;;;;;;;5.37;1.80;;;;;;;;;;4256677;33;20213;-59
2021/05/05 10:49:16;;;;;;;10.63;2.00;;;;;;;;;;4256741;33;20307;-60
2021/05/05 10:51:44;;;;;;;7.32;2.37;;;;;;;;;;4268146;33;20327;-56
2021/05/05 10:54:14;;;;;;;8.55;2.08;;;;;;;;;;4270800;33;20243;-56
2021/05/05 10:56:43;;;;;;;12.82;2.47;;;;;;;;;;4270539;33;20764;-55
2021/05/05 10:59:11;;;;;;;4.62;1.85;;;;;;;;;;4270545;33;20208;-59
2021/05/05 11:01:40;;;;;;;14.75;2.55;;;;;;;;;;4271936;33;20242;-59
2021/05/05 11:04:07;;;;;;;10.02;2.55;;;;;;;;;;4273555;33;20561;-58
2021/05/05 11:06:36;;;;;;;13.18;2.08;;;;;;;;;;4273525;33;20378;-60
2021/05/05 11:09:15;;;;;;;8.70;1.67;;;;;;;;;;4273466;33;20705;-60
2021/05/05 11:11:45;;;;;;;3.10;1.70;;;;;;;;;;4273157;33;20251;-55
2021/05/05 11:14:32;;;;;;;13.32;2.10;;;;;;;;;;4273377;33;20284;-57
2021/05/05 11:17:01;;;;;;;8.15;1.73;;;;;;;;;;4272224;33;20264;-55
2021/05/05 11:19:41;;;;;;;5.55;1.50;;;;;;;;;;4285638;33;20298;-55
2021/05/05 11:22:09;;;;;;;7.90;1.85;;;;;;;;;;4288118;33;20621;-59
2021/05/05 11:24:38;;;;;;;7.30;1.87;;;;;;;;;;4287821;33;20295;-59
2021/05/05 11:27:09;;;;;;;10.73;1.90;;;;;;;;;;4286556;33;20291;-59
2021/05/05 11:29:39;;;;;;;6.85;1.33;;;;;;;;;;4287664;33;20240;-55
2021/05/05 11:32:18;;;;;;;8.65;2.37;;;;;;;;;;4286541;33;20232;-59
2021/05/05 11:34:46;;;;;;;2.35;1.70;;;;;;;;;;4287968;33;20220;-60
2021/05/05 11:37:23;;;;;;;2.35;1.30;;;;;;;;;;4287549;33;20212;-59
2021/05/05 11:39:51;;;;;;;6.32;1.40;;;;;;;;;;4287848;33;20283;-59
2021/05/05 11:42:37;;;;;;;3.30;1.83;;;;;;;;;;4287460;33;20208;-59
2021/05/05 11:45:09;;;;;;;4.40;1.70;;;;;;;;;;4287236;33;20239;-56
2021/05/05 11:47:37;;;;;;;3.33;1.73;;;;;;;;;;4287364;33;20590;-59
2021/05/05 11:50:08;;;;;;;4.72;1.37;;;;;;;;;;4279430;33;20315;-59
2021/05/05 11:52:36;;;;;;;3.50;1.60;;;;;;;;;;4258966;33;20247;-59
2021/05/05 11:55:08;;;;;;;15.15;1.40;;;;;;;;;;4258913;33;20645;-59
2021/05/05 11:57:44;;;;;;;10.77;1.58;;;;;;;;;;4258811;33;20258;-59
2021/05/05 12:00:21;;;;;;;1.90;1.00;;;;;;;;;;4269161;33;20233;-59
2021/05/05 12:02:49;;;;;;;7.75;2.10;;;;;;;;;;4258575;33;20323;-59
2021/05/05 12:05:36;;;;;;;4.60;1.30;;;;;;;;;;4258725;33;20232;-59
2021/05/05 12:08:05;;;;;;;6.53;1.23;;;;;;;;;;4258652;33;20260;-59
2021/05/05 12:10:33;;;;;;;2.70;1.12;;;;;;;;;;4262025;33;20438;-59
2021/05/05 12:13:08;;;;;;;3.37;1.50;;;;;;;;;;4272038;33;20212;-59
2021/05/05 12:15:35;;;;;;;2.45;0.80;;;;;;;;;;4271581;33;20254;-58
2021/05/05 12:18:12;;;;;;;2.00;1.00;;;;;;;;;;4276214;33;20286;-59
2021/05/05 12:20:38;;;;;;;2.70;0.88;;;;;;;;;;4287123;33;20283;-58
2021/05/05 12:23:04;;;;;;;6.22;1.17;;;;;;;;;;4286440;33;20212;-59
2021/05/05 12:25:34;;;;;;;12.37;1.65;;;;;;;;;;4287125;33;20224;-58
2021/05/05 12:28:03;;;;;;;8.18;0.90;;;;;;;;;;4286963;33;20641;-59
2021/05/05 12:30:43;;;;;;;6.07;0.85;;;;;;;;;;4286662;33;20727;-59
2021/05/05 12:33:10;;;;;;;3.17;1.02;;;;;;;;;;4286560;33;20207;-59
2021/05/05 12:35:37;;;;;;;2.20;0.80;;;;;;;;;;4286766;33;20307;-59
2021/05/05 12:38:18;;;;;;;3.62;1.30;;;;;;;;;;4284851;33;20236;-59
2021/05/05 12:40:44;;;;;;;3.03;1.00;;;;;;;;;;4286388;33;20587;-59
2021/05/05 12:43:17;;;;;;;3.62;1.05;;;;;;;;;;4285166;33;20267;-59
2021/05/05 12:45:45;;;;;;;2.70;1.02;;;;;;;;;;4286529;33;20216;-59
2021/05/05 12:48:11;;;;;;;2.45;0.93;;;;;;;;;;4286253;33;20471;-59
2021/05/05 12:50:42;;;;;;;2.28;0.80;;;;;;;;;;4279070;33;20235;-59
2021/05/05 12:53:09;;;;;;;4.18;1.20;;;;;;;;;;4272235;33;20246;-59
2021/05/05 12:55:38;;;;;;;9.93;1.33;;;;;;;;;;4271772;33;20333;-58
2021/05/05 12:58:15;;;;;;;1.37;0.70;;;;;;;;;;4272026;33;20212;-59
2021/05/05 13:00:44;;;;;;;8.95;1.05;;;;;;;;;;4271977;33;20315;-57
2021/05/05 13:03:14;;;;;;;5.43;1.08;;;;;;;;;;4271861;33;20212;-56
2021/05/05 13:06:03;;;;;;;15.23;2.05;;;;;;;;;;4271897;33;20240;-59
2021/05/05 13:08:58;;;;;;;5.00;0.88;;;;;;;;;;4271374;33;20208;-60
2021/05/05 13:11:29;;;;;;;6.03;1.50;;;;;;;;;;4267998;33;20296;-59
2021/05/05 13:14:06;;;;;;;3.25;0.60;;;;;;;;;;4257427;33;20212;-59
2021/05/05 13:30:35;;;;;;;2.75;1.10;;;;;;;;;;4285680;33;20283;-58
2021/05/05 13:33:06;;;;;;;9.35;1.35;;;;;;;;;;4285615;33;20223;-58
2021/05/05 13:35:35;;;;;;;8.25;0.95;;;;;;;;;;4284373;33;20681;-58
2021/05/05 13:38:13;;;;;;;5.03;1.23;;;;;;;;;;4285751;33;20275;-58
2021/05/05 13:40:50;;;;;;;8.00;1.00;;;;;;;;;;4284466;33;20677;-58
2021/05/05 13:43:58;;;;;;;5.53;1.00;;;;;;;;;;4285466;33;20371;-58
2021/05/05 13:46:35;;;;;;;1.77;1.00;;;;;;;;;;4284901;33;20235;-58
2021/05/05 13:49:20;;;;;;;5.90;1.33;;;;;;;;;;4285481;33;20543;-59
2021/05/05 13:51:46;;;;;;;6.82;1.30;;;;;;;;;;4257173;33;20459;-57
2021/05/05 13:54:12;;;;;;;2.40;0.95;;;;;;;;;;4257249;33;20595;-59
2021/05/05 13:56:37;;;;;;;8.48;1.33;;;;;;;;;;4255796;33;20349;-57
2021/05/05 13:59:03;;;;;;;3.95;1.02;;;;;;;;;;4267649;33;20337;-58
2021/05/05 14:01:29;;;;;;;4.95;1.15;;;;;;;;;;4256788;33;20232;-58
2021/05/05 14:03:54;;;;;;;6.12;1.12;;;;;;;;;;4256972;33;20639;-58
2021/05/05 14:06:22;;;;;;;8.00;1.10;;;;;;;;;;4257164;33;20220;-57
2021/05/05 14:08:48;;;;;;;7.10;1.20;;;;;;;;;;4256788;33;20225;-58
2021/05/05 14:11:15;;;;;;;5.43;1.00;;;;;;;;;;4264485;33;20252;-56
2021/05/05 14:13:43;;;;;;;5.50;1.42;;;;;;;;;;4270767;33;20338;-56
2021/05/05 14:16:11;;;;;;;13.95;1.80;;;;;;;;;;4270606;33;20370;-56
2021/05/05 14:18:37;;;;;;;10.40;2.20;;;;;;;;;;4278205;33;20216;-56
2021/05/05 14:21:08;;;;;;;4.60;1.10;;;;;;;;;;4285056;33;20318;-58
2021/05/05 14:23:35;;;;;;;6.65;1.45;;;;;;;;;;4295702;33;20220;-58
2021/05/05 14:26:00;;;;;;;3.92;1.77;;;;;;;;;;4285118;33;20282;-57
2021/05/05 14:28:26;;;;;;;7.32;1.40;;;;;;;;;;4284899;33;20278;-57
2021/05/05 14:30:51;;;;;;;8.20;1.20;;;;;;;;;;4284948;33;20287;-57
2021/05/05 14:33:17;;;;;;;6.35;1.23;;;;;;;;;;4285124;33;20442;-57
2021/05/05 14:35:43;;;;;;;6.68;1.98;;;;;;;;;;4284809;33;20294;-57
2021/05/05 14:38:15;;;;;;;2.65;0.90;;;;;;;;;;4285132;33;20287;-57
2021/05/05 14:40:43;;;;;;;8.68;1.62;;;;;;;;;;4285003;33;20303;-57
2021/05/05 14:50:32;;;;;;;5.28;2.45;;;;;;;;;;4277851;33;20263;-57
2021/05/05 14:52:58;;;;;;;7.07;1.60;;;;;;;;;;4270248;33;20563;-58
2021/05/05 14:55:24;;;;;;;5.10;1.58;;;;;;;;;;4270118;33;20523;-58
2021/05/05 14:57:56;;;;;;;7.97;1.60;;;;;;;;;;4270614;33;20239;-58
2021/05/05 15:00:23;;;;;;;5.60;1.37;;;;;;;;;;4269073;33;20231;-58
2021/05/05 15:02:48;;;;;;;6.75;1.10;;;;;;;;;;4281015;33;20603;-58
2021/05/05 15:05:22;;;;;;;7.93;1.58;;;;;;;;;;4270064;33;20227;-57
2021/05/05 15:07:50;;;;;;;4.78;1.40;;;;;;;;;;4269891;33;20284;-58
2021/05/05 15:40:25;;;;;;;5.55;1.62;;;;;;;;;;4284233;33;20712;-59
2021/05/05 15:43:18;;;;;;;7.03;1.98;;;;;;;;;;4283175;33;20315;-57
2021/05/05 15:46:23;;;;;;;5.68;1.37;;;;;;;;;;4284204;33;20258;-59